createdAt,value
2022-11-27T00:00:50.304Z,2.20
2022-11-27T00:05:55.828Z,2.20
2022-11-27T00:11:04.966Z,2.50
2022-11-27T00:16:11.040Z,2.13
2022-11-27T00:21:16.849Z,2.47
2022-11-27T00:26:21.040Z,2.57
2022-11-27T00:31:29.673Z,2.50
2022-11-27T00:36:34.852Z,2.23
2022-11-27T00:41:38.419Z,2.10
2022-11-27T00:46:43.508Z,2.00
2022-11-27T00:51:47.135Z,2.27
2022-11-27T00:56:50.663Z,2.00
2022-11-27T01:01:56.013Z,2.10
2022-11-27T01:07:00.159Z,1.77
2022-11-27T01:12:03.791Z,2.00
2022-11-27T01:17:08.825Z,2.30
2022-11-27T01:22:12.346Z,2.00
2022-11-27T01:27:15.967Z,2.10
2022-11-27T01:32:21.096Z,2.73
2022-11-27T01:37:24.555Z,2.47
2022-11-27T01:42:28.079Z,3.10
2022-11-27T01:47:39.132Z,2.30
2022-11-27T01:52:47.410Z,3.07
2022-11-27T01:57:54.419Z,3.50
2022-11-27T02:02:59.401Z,3.60
2022-11-27T02:08:08.580Z,4.10
2022-11-27T02:13:19.502Z,4.37
2022-11-27T02:18:31.173Z,3.40
2022-11-27T02:24:22.374Z,4.67
2022-11-27T02:29:32.327Z,5.67
2022-11-27T02:34:44.378Z,5.73
2022-11-27T02:39:56.559Z,5.37
2022-11-27T02:45:04.085Z,6.70
2022-11-27T02:50:10.600Z,6.87
2022-11-27T02:55:19.024Z,7.93
2022-11-27T03:00:24.451Z,7.00
2022-11-27T03:05:33.410Z,8.33
2022-11-27T03:10:43.628Z,8.47
2022-11-27T03:15:59.706Z,7.60
2022-11-27T03:21:26.524Z,7.80
2022-11-27T03:26:30.567Z,8.20
2022-11-27T03:31:35.642Z,8.67
2022-11-27T03:36:39.243Z,7.40
2022-11-27T03:41:47.921Z,7.30
2022-11-27T03:47:07.954Z,6.17
2022-11-27T03:52:19.115Z,7.13
2022-11-27T03:57:29.707Z,7.20
2022-11-27T04:02:42.725Z,6.77
2022-11-27T04:07:46.290Z,7.13
2022-11-27T04:12:49.857Z,7.00
2022-11-27T04:17:54.817Z,7.43
2022-11-27T04:22:58.756Z,7.13
2022-11-27T04:28:02.266Z,6.20
2022-11-27T04:33:07.137Z,6.17
2022-11-27T04:38:10.703Z,5.70
2022-11-27T04:43:14.354Z,7.30
2022-11-27T04:48:19.296Z,6.00
2022-11-27T04:53:22.998Z,6.40
2022-11-27T04:58:26.605Z,6.17
2022-11-27T05:03:31.514Z,7.47
2022-11-27T05:08:35.603Z,5.83
2022-11-27T05:13:39.468Z,6.10
2022-11-27T05:18:44.349Z,5.80
2022-11-27T05:23:47.944Z,5.50
2022-11-27T05:28:51.553Z,5.17
2022-11-27T05:33:56.485Z,5.23
2022-11-27T05:39:00.938Z,5.43
2022-11-27T05:44:05.038Z,5.63
2022-11-27T05:49:12.545Z,5.00
2022-11-27T05:54:16.337Z,5.20
2022-11-27T05:59:20.081Z,4.40
2022-11-27T06:04:25.036Z,5.00
2022-11-27T06:09:28.541Z,5.70
2022-11-27T06:14:34.957Z,4.90
2022-11-27T06:19:39.831Z,5.00
2022-11-27T06:24:43.549Z,4.00
2022-11-27T06:29:47.340Z,5.00
2022-11-27T06:34:52.259Z,5.20
2022-11-27T06:39:55.836Z,5.70
2022-11-27T06:44:59.590Z,4.47
2022-11-27T06:50:04.692Z,4.47
2022-11-27T06:55:08.901Z,5.13
2022-11-27T07:00:13.501Z,4.03
2022-11-27T07:05:18.432Z,5.07
2022-11-27T07:10:22.002Z,4.87
2022-11-27T07:15:25.538Z,5.13
2022-11-27T07:20:30.522Z,5.17
2022-11-27T07:25:34.068Z,4.47
2022-11-27T07:30:37.690Z,4.30
2022-11-27T07:35:42.613Z,5.77
2022-11-27T07:40:46.186Z,4.17
2022-11-27T07:45:49.977Z,5.00
2022-11-27T07:50:54.936Z,4.17
2022-11-27T07:56:00.592Z,4.73
2022-11-27T08:01:07.807Z,4.30
2022-11-27T08:06:18.552Z,4.73
2022-11-27T08:11:24.147Z,4.50
2022-11-27T08:16:28.248Z,4.00
2022-11-27T08:21:33.984Z,4.53
2022-11-27T08:26:37.545Z,4.73
2022-11-27T08:31:41.200Z,5.10
2022-11-27T08:36:46.107Z,4.90
2022-11-27T08:41:49.701Z,5.17
2022-11-27T08:46:53.181Z,4.30
2022-11-27T08:51:58.105Z,4.97
2022-11-27T08:57:01.685Z,4.40
2022-11-27T09:02:05.436Z,3.60
2022-11-27T09:07:14.070Z,4.67
2022-11-27T09:12:17.689Z,4.97
2022-11-27T09:17:21.358Z,4.27
2022-11-27T09:22:26.300Z,4.83
2022-11-27T09:27:30.188Z,4.23
2022-11-27T09:32:33.811Z,3.80
2022-11-27T09:37:38.712Z,5.47
2022-11-27T09:42:50.990Z,4.90
2022-11-27T09:47:57.416Z,4.47
2022-11-27T09:53:07.589Z,4.20
2022-11-27T09:58:18.957Z,5.17
2022-11-27T10:03:26.440Z,5.47
2022-11-27T10:08:44.522Z,5.50
2022-11-27T10:14:01.029Z,5.80
2022-11-27T10:19:17.148Z,4.60
2022-11-27T10:24:28.829Z,4.33
2022-11-27T10:29:44.370Z,3.73
2022-11-27T10:34:53.617Z,4.03
2022-11-27T10:40:03.347Z,4.10
2022-11-27T10:45:13.848Z,3.20
2022-11-27T10:50:20.190Z,3.80
2022-11-27T10:55:36.342Z,4.53
2022-11-27T11:00:39.892Z,4.27
2022-11-27T11:06:12.248Z,3.83
2022-11-27T11:11:09.931Z,3.10
2022-11-27T11:16:23.968Z,3.70
2022-11-27T11:21:30.808Z,3.00
2022-11-27T11:26:39.600Z,3.37
2022-11-27T11:31:43.364Z,3.87
2022-11-27T11:36:56.723Z,3.23
2022-11-27T11:42:02.111Z,3.50
2022-11-27T11:47:06.386Z,3.50
2022-11-27T11:52:28.777Z,3.60
2022-11-27T11:58:10.328Z,2.97
2022-11-27T12:03:25.364Z,3.73
2022-11-27T12:08:44.820Z,2.90
2022-11-27T12:14:03.707Z,2.80
2022-11-27T12:19:31.722Z,3.13
2022-11-27T12:24:45.054Z,2.77
2022-11-27T12:30:06.970Z,2.60
2022-11-27T12:35:32.355Z,2.67
2022-11-27T12:40:55.330Z,2.80
2022-11-27T12:46:03.796Z,2.77
2022-11-27T12:51:11.111Z,2.63
2022-11-27T12:56:20.977Z,2.87
2022-11-27T13:01:30.270Z,2.20
2022-11-27T13:06:41.304Z,2.63
2022-11-27T13:11:45.319Z,2.37
2022-11-27T13:16:53.847Z,2.17
2022-11-27T13:21:58.840Z,2.30
2022-11-27T13:27:07.290Z,1.90
2022-11-27T13:32:22.404Z,1.80
2022-11-27T13:37:29.940Z,1.93
2022-11-27T13:42:36.929Z,2.53
2022-11-27T13:47:45.118Z,2.60
2022-11-27T13:52:54.641Z,1.97
2022-11-27T13:58:00.975Z,2.50
2022-11-27T14:03:07.117Z,2.40
2022-11-27T14:08:20.266Z,2.43
2022-11-27T14:13:33.970Z,2.60
2022-11-27T14:18:39.008Z,1.97
2022-11-27T14:23:51.387Z,2.17
2022-11-27T14:28:56.732Z,1.60
2022-11-27T14:34:20.854Z,2.20
2022-11-27T14:39:29.282Z,2.27
2022-11-27T14:44:33.770Z,2.07
2022-11-27T14:49:38.999Z,2.23
2022-11-27T14:54:45.647Z,2.00
2022-11-27T14:59:49.273Z,1.83
2022-11-27T15:05:03.867Z,1.50
2022-11-27T15:10:23.024Z,1.50
2022-11-27T15:15:28.643Z,1.93
2022-11-27T15:20:39.015Z,1.70
2022-11-27T15:25:44.464Z,2.07
2022-11-27T15:30:48.373Z,1.80
2022-11-27T15:35:54.062Z,2.40
2022-11-27T15:41:00.945Z,2.23
2022-11-27T15:46:08.403Z,2.07
2022-11-27T15:51:13.419Z,2.43
2022-11-27T15:56:17.768Z,2.43
2022-11-27T16:01:21.426Z,2.27
2022-11-27T16:06:26.331Z,2.43
2022-11-27T16:11:31.453Z,3.37
2022-11-27T16:16:35.915Z,3.10
2022-11-27T16:21:40.951Z,3.33
2022-11-27T16:26:44.482Z,2.63
2022-11-27T16:31:48.157Z,3.00
2022-11-27T16:36:53.989Z,2.77
2022-11-27T16:41:57.816Z,2.93
2022-11-27T16:47:01.410Z,2.60
2022-11-27T16:52:06.517Z,2.83
2022-11-27T16:57:10.412Z,2.70
2022-11-27T17:02:14.030Z,3.07
2022-11-27T17:07:18.939Z,3.10
2022-11-27T17:12:22.792Z,2.97
2022-11-27T17:17:26.497Z,3.23
2022-11-27T17:22:32.006Z,3.37
2022-11-27T17:27:35.647Z,3.50
2022-11-27T17:32:39.499Z,3.10
2022-11-27T17:37:45.375Z,3.00
2022-11-27T17:42:49.119Z,2.47
2022-11-27T17:47:52.776Z,3.27
2022-11-27T17:52:58.675Z,3.23
2022-11-27T17:58:02.434Z,3.03
2022-11-27T18:03:07.585Z,2.93
2022-11-27T18:08:12.994Z,2.70
2022-11-27T18:13:16.620Z,3.03
2022-11-27T18:18:20.391Z,3.10
2022-11-27T18:23:25.287Z,3.20
2022-11-27T18:28:29.406Z,2.87
2022-11-27T18:33:32.974Z,2.67
2022-11-27T18:38:41.058Z,2.57
2022-11-27T18:43:45.961Z,2.90
2022-11-27T18:48:51.364Z,2.80
2022-11-27T18:53:56.757Z,2.23
2022-11-27T18:59:03.111Z,2.80
2022-11-27T19:04:07.604Z,2.37
2022-11-27T19:09:14.890Z,2.57
2022-11-27T19:14:19.970Z,3.50
2022-11-27T19:19:53.825Z,3.57
2022-11-27T19:24:53.057Z,2.47
2022-11-27T19:29:56.672Z,2.80
2022-11-27T19:35:05.677Z,2.43
2022-11-27T19:40:13.604Z,2.50
2022-11-27T19:45:17.833Z,2.03
2022-11-27T19:50:21.853Z,2.67
2022-11-27T19:55:27.077Z,2.40
2022-11-27T20:00:30.925Z,2.73
2022-11-27T20:05:34.551Z,2.73
2022-11-27T20:10:39.497Z,2.53
2022-11-27T20:15:43.045Z,3.17
2022-11-27T20:20:46.685Z,2.93
2022-11-27T20:25:52.108Z,3.07
2022-11-27T20:30:57.945Z,2.90
2022-11-27T20:36:02.156Z,3.10
2022-11-27T20:41:08.867Z,2.97
2022-11-27T20:46:13.344Z,3.17
2022-11-27T20:51:18.804Z,2.57
2022-11-27T20:56:23.746Z,2.97
2022-11-27T21:01:29.832Z,2.70
2022-11-27T21:06:33.929Z,2.10
2022-11-27T21:11:39.338Z,2.30
2022-11-27T21:16:44.855Z,2.13
2022-11-27T21:21:50.204Z,2.47
2022-11-27T21:26:55.699Z,2.40
2022-11-27T21:31:59.703Z,2.30
2022-11-27T21:37:03.415Z,3.03
2022-11-27T21:42:08.346Z,2.20
2022-11-27T21:47:12.567Z,3.37
2022-11-27T21:52:16.515Z,3.40
2022-11-27T21:57:22.738Z,2.60
2022-11-27T22:02:27.018Z,2.60
2022-11-27T22:07:30.735Z,2.30
2022-11-27T22:12:35.828Z,2.27
2022-11-27T22:17:39.638Z,2.67
2022-11-27T22:22:43.246Z,2.93
2022-11-27T22:27:48.128Z,2.40
2022-11-27T22:32:53.915Z,2.80
2022-11-27T22:37:57.670Z,2.30
2022-11-27T22:43:02.648Z,2.13
2022-11-27T22:48:07.116Z,2.40
2022-11-27T22:53:10.637Z,2.77
2022-11-27T22:58:16.103Z,2.30
2022-11-27T23:03:19.679Z,2.37
2022-11-27T23:08:23.429Z,2.47
2022-11-27T23:13:28.416Z,2.10
2022-11-27T23:18:32.058Z,2.20
2022-11-27T23:23:36.110Z,2.23
2022-11-27T23:28:41.021Z,2.63
2022-11-27T23:33:44.716Z,3.03
2022-11-27T23:38:48.893Z,2.90
2022-11-27T23:43:54.508Z,3.17
2022-11-27T23:49:00.455Z,2.87
2022-11-27T23:54:09.034Z,2.60
2022-11-27T23:59:14.088Z,2.87
